Time;durP1;ratioP1;P1;durP2;ratioP2;P2;SDS_P1;SDS_P2;PMS_P1;PMS_P2;Temp;Humidity;BMP_temperature;BMP_pressure;BME280_temperature;BME280_humidity;BME280_pressure;Samples;Min_cycle;Max_cycle;Signal;HPM_P1;HPM_P2
2024/04/21 00:02:21;;;;;;;2.37;1.70;;;7.00;99.90;;;;;;5467766;26;21737;-67
2024/04/21 00:04:47;;;;;;;2.63;1.90;;;7.00;99.90;;;;;;5466267;26;21015;-66
2024/04/21 00:07:12;;;;;;;2.60;1.87;;;7.00;99.90;;;;;;5472123;26;20222;-66
2024/04/21 00:09:38;;;;;;;3.07;2.00;;;7.00;99.90;;;;;;5453042;26;20953;-67
2024/04/21 00:12:04;;;;;;;4.00;1.60;;;7.00;99.90;;;;;;5455396;26;20328;-66
2024/04/21 00:14:29;;;;;;;2.57;1.70;;;7.10;99.90;;;;;;5458835;26;20238;-67
2024/04/21 00:16:55;;;;;;;2.93;1.70;;;7.10;99.90;;;;;;5473381;26;20550;-67
2024/04/21 00:19:21;;;;;;;2.37;1.70;;;7.10;99.90;;;;;;5469691;26;20231;-67
2024/04/21 00:21:46;;;;;;;3.00;1.90;;;7.20;99.90;;;;;;5456275;26;20289;-67
2024/04/21 00:24:12;;;;;;;3.90;1.67;;;7.20;99.90;;;;;;5466803;26;20715;-67
2024/04/21 00:26:37;;;;;;;4.30;2.03;;;7.20;99.90;;;;;;5468497;26;20225;-67
2024/04/21 00:29:04;;;;;;;3.60;1.90;;;7.20;99.90;;;;;;5465485;26;20219;-67
2024/04/21 00:31:30;;;;;;;2.87;1.80;;;7.10;99.90;;;;;;5465274;26;20235;-67
2024/04/21 00:33:55;;;;;;;3.60;2.00;;;7.10;99.90;;;;;;5471574;26;20476;-67
2024/04/21 00:36:21;;;;;;;2.50;1.80;;;7.10;99.90;;;;;;5468905;26;20454;-67
2024/04/21 00:38:47;;;;;;;2.00;1.40;;;7.10;99.90;;;;;;5461313;26;20942;-67
2024/04/21 00:41:13;;;;;;;2.63;1.60;;;7.20;99.90;;;;;;5456358;26;20236;-67
2024/04/21 00:43:38;;;;;;;2.40;1.53;;;7.10;99.90;;;;;;5469415;26;21448;-67
2024/04/21 00:46:05;;;;;;;2.37;1.50;;;7.10;99.90;;;;;;5468839;26;20339;-67
2024/04/21 00:48:32;;;;;;;2.27;1.60;;;7.00;99.90;;;;;;5438698;26;20339;-67
2024/04/21 00:50:59;;;;;;;5.97;1.50;;;7.10;99.90;;;;;;5468088;26;20483;-67
2024/04/21 00:53:25;;;;;;;2.57;1.70;;;7.00;99.90;;;;;;5474579;25;20505;-67
2024/04/21 00:55:51;;;;;;;2.73;1.90;;;7.10;99.90;;;;;;5469906;26;20467;-67
2024/04/21 00:58:18;;;;;;;3.60;1.90;;;7.20;99.90;;;;;;5467387;26;20471;-67
2024/04/21 01:00:46;;;;;;;2.43;1.73;;;7.20;99.90;;;;;;5473954;25;20990;-67
2024/04/21 01:03:11;;;;;;;2.47;1.77;;;7.20;99.90;;;;;;5478857;26;20464;-67
2024/04/21 01:05:37;;;;;;;2.40;1.97;;;7.20;99.90;;;;;;5473025;26;20591;-67
2024/04/21 01:08:03;;;;;;;2.97;2.00;;;7.20;99.90;;;;;;5475416;26;20305;-67
2024/04/21 01:10:28;;;;;;;3.40;2.23;;;7.20;99.90;;;;;;5471888;26;20230;-67
2024/04/21 01:12:54;;;;;;;4.03;2.30;;;7.20;99.90;;;;;;5477234;26;20471;-67
2024/04/21 01:15:19;;;;;;;3.47;2.07;;;7.10;99.90;;;;;;5474004;26;20234;-67
2024/04/21 01:17:45;;;;;;;3.83;2.50;;;7.10;99.90;;;;;;5471345;26;20228;-67
2024/04/21 01:20:11;;;;;;;3.37;2.73;;;7.20;99.90;;;;;;5473355;26;20559;-67
2024/04/21 01:22:47;;;;;;;5.77;2.90;;;7.30;99.90;;;;;;5477678;26;20262;-67
2024/04/21 01:25:13;;;;;;;5.63;3.10;;;7.30;99.90;;;;;;5464328;26;20875;-67
2024/04/21 01:27:39;;;;;;;4.17;3.10;;;7.30;99.90;;;;;;5467726;26;20460;-67
2024/04/21 01:30:05;;;;;;;3.93;2.87;;;7.30;99.90;;;;;;5475352;26;20472;-67
2024/04/21 01:32:30;;;;;;;4.83;3.33;;;7.20;99.90;;;;;;5475157;26;20235;-67
2024/04/21 01:34:56;;;;;;;4.27;3.57;;;7.20;99.90;;;;;;5469320;26;20481;-67
2024/04/21 01:37:21;;;;;;;5.17;4.30;;;7.20;99.90;;;;;;5478184;26;20337;-67
2024/04/21 01:39:47;;;;;;;9.77;5.27;;;7.20;99.90;;;;;;5471827;26;20270;-67
2024/04/21 01:42:12;;;;;;;5.87;4.70;;;7.30;99.90;;;;;;5467374;26;20247;-68
2024/04/21 01:44:38;;;;;;;5.37;4.87;;;7.30;99.90;;;;;;5474837;26;21011;-67
2024/04/21 01:47:04;;;;;;;7.27;5.53;;;7.40;99.90;;;;;;5469727;26;21153;-67
2024/04/21 01:49:29;;;;;;;6.27;5.00;;;7.40;99.90;;;;;;5466006;26;20240;-67
2024/04/21 01:51:55;;;;;;;6.30;4.83;;;7.50;99.90;;;;;;5470923;26;20265;-67
2024/04/21 01:54:21;;;;;;;8.10;4.90;;;7.40;99.90;;;;;;5466900;26;20263;-67
2024/04/21 01:56:46;;;;;;;7.77;5.20;;;7.40;99.90;;;;;;5462283;26;20290;-67
2024/04/21 01:59:12;;;;;;;7.07;6.37;;;7.40;99.90;;;;;;5470159;26;20227;-67
2024/04/21 02:01:37;;;;;;;7.07;5.73;;;7.30;99.90;;;;;;5459048;26;20247;-67
2024/04/21 02:04:03;;;;;;;5.83;5.23;;;7.30;99.90;;;;;;5472070;26;20235;-67
2024/04/21 02:06:29;;;;;;;9.10;6.27;;;7.30;99.90;;;;;;5465433;26;20304;-67
2024/04/21 02:08:54;;;;;;;6.77;6.07;;;7.20;99.90;;;;;;5461404;26;20246;-67
2024/04/21 02:11:20;;;;;;;7.53;6.70;;;7.20;99.90;;;;;;5471346;26;20239;-67
2024/04/21 02:13:45;;;;;;;7.90;6.37;;;7.30;99.90;;;;;;5469181;26;20223;-67
2024/04/21 02:16:11;;;;;;;9.83;6.70;;;7.30;99.90;;;;;;5471832;26;20730;-67
2024/04/21 02:18:36;;;;;;;9.10;7.07;;;7.30;99.90;;;;;;5467377;26;20748;-67
2024/04/21 02:21:02;;;;;;;8.80;7.10;;;7.40;99.90;;;;;;5465003;26;20297;-67
2024/04/21 02:23:28;;;;;;;8.87;7.23;;;7.40;99.90;;;;;;5475153;26;20374;-66
2024/04/21 02:25:57;;;;;;;8.30;6.80;;;7.30;99.90;;;;;;5461309;26;20266;-66
2024/04/21 02:28:23;;;;;;;6.57;5.90;;;7.40;99.90;;;;;;5474440;26;21040;-68
2024/04/21 02:30:49;;;;;;;7.33;6.57;;;7.40;99.90;;;;;;5468549;26;20527;-67
2024/04/21 02:33:15;;;;;;;7.30;6.60;;;7.50;99.90;;;;;;5474174;26;20269;-67
2024/04/21 02:35:40;;;;;;;15.53;8.23;;;7.50;99.90;;;;;;5473006;26;20246;-67
2024/04/21 02:38:06;;;;;;;7.83;7.03;;;7.50;99.90;;;;;;5471257;26;20238;-67
2024/04/21 02:40:31;;;;;;;9.93;6.13;;;7.50;99.90;;;;;;5465678;26;20232;-67
2024/04/21 02:42:57;;;;;;;6.60;6.00;;;7.50;99.90;;;;;;5467684;26;20231;-67
2024/04/21 02:45:22;;;;;;;10.07;6.57;;;7.50;99.90;;;;;;5466885;26;20332;-66
2024/04/21 02:47:48;;;;;;;8.03;6.60;;;7.50;99.90;;;;;;5465641;26;20357;-66
2024/04/21 02:50:13;;;;;;;6.70;6.00;;;7.50;99.90;;;;;;5472744;26;20238;-67
2024/04/21 02:52:39;;;;;;;8.30;6.13;;;7.40;99.90;;;;;;5467819;26;20279;-67
2024/04/21 02:55:04;;;;;;;9.30;7.07;;;7.40;99.90;;;;;;5473847;26;20570;-67
2024/04/21 02:57:31;;;;;;;9.60;6.57;;;7.50;99.90;;;;;;5459533;26;20230;-67
2024/04/21 02:59:57;;;;;;;8.00;6.73;;;7.50;99.90;;;;;;5464976;26;20263;-67
2024/04/21 03:02:23;;;;;;;6.97;6.23;;;7.40;99.90;;;;;;5457675;26;20472;-66
2024/04/21 03:04:49;;;;;;;7.93;6.73;;;7.40;99.90;;;;;;5468242;26;20740;-66
2024/04/21 03:07:14;;;;;;;9.07;7.90;;;7.40;99.90;;;;;;5464723;26;20228;-67
2024/04/21 03:09:43;;;;;;;8.53;7.17;;;7.50;99.90;;;;;;5467064;26;20235;-66
2024/04/21 03:12:09;;;;;;;11.00;7.07;;;7.50;99.90;;;;;;5472881;26;20239;-67
2024/04/21 03:14:35;;;;;;;7.77;6.97;;;7.60;99.90;;;;;;5468733;26;21082;-67
2024/04/21 03:17:03;;;;;;;11.67;8.30;;;7.50;99.90;;;;;;5469272;26;20453;-67
2024/04/21 03:19:28;;;;;;;8.60;7.20;;;7.50;99.90;;;;;;5467380;26;20510;-67
2024/04/21 03:21:55;;;;;;;7.60;6.80;;;7.50;99.90;;;;;;5473850;26;20990;-67
2024/04/21 03:24:21;;;;;;;12.03;7.90;;;7.40;99.90;;;;;;5466828;26;20876;-67
2024/04/21 03:26:46;;;;;;;11.20;8.00;;;7.30;99.90;;;;;;5470252;26;20468;-67
2024/04/21 03:29:12;;;;;;;13.53;8.20;;;7.40;99.90;;;;;;5467170;26;20724;-67
2024/04/21 03:31:37;;;;;;;10.10;7.20;;;7.20;99.90;;;;;;5459380;26;20779;-67
2024/04/21 03:34:03;;;;;;;10.47;7.33;;;7.20;99.90;;;;;;5462664;26;20236;-67
2024/04/21 03:36:28;;;;;;;9.80;6.27;;;7.20;99.90;;;;;;5461026;26;20308;-67
2024/04/21 03:38:54;;;;;;;9.00;7.70;;;7.20;99.90;;;;;;5469576;26;21080;-67
2024/04/21 03:41:20;;;;;;;7.20;6.50;;;7.30;99.90;;;;;;5465868;26;20289;-67
2024/04/21 03:43:46;;;;;;;8.10;6.73;;;7.30;99.90;;;;;;5467783;26;20231;-67
2024/04/21 03:46:12;;;;;;;7.80;6.70;;;7.40;99.90;;;;;;5469996;26;20717;-68
2024/04/21 03:48:39;;;;;;;8.13;6.60;;;7.40;99.90;;;;;;5465607;26;20495;-68
2024/04/21 03:51:05;;;;;;;8.27;6.97;;;7.50;99.90;;;;;;5474929;26;20468;-68
2024/04/21 03:53:31;;;;;;;11.70;6.57;;;7.60;99.90;;;;;;5473843;26;21216;-68
2024/04/21 03:55:57;;;;;;;8.17;7.37;;;7.60;99.90;;;;;;5458804;26;20464;-68
2024/04/21 03:58:22;;;;;;;11.17;5.77;;;7.60;99.90;;;;;;5472973;26;20230;-69
2024/04/21 04:00:48;;;;;;;6.27;5.47;;;7.70;99.90;;;;;;5469633;26;20231;-67
2024/04/21 04:03:15;;;;;;;7.07;5.53;;;7.70;99.90;;;;;;5468451;26;20725;-69
2024/04/21 04:05:45;;;;;;;7.50;5.93;;;7.70;99.90;;;;;;5462097;26;20236;-68
2024/04/21 04:08:13;;;;;;;7.47;4.97;;;7.70;99.90;;;;;;5472640;26;20560;-67
2024/04/21 04:10:40;;;;;;;5.73;4.80;;;7.70;99.90;;;;;;5476209;26;20566;-67
2024/04/21 04:13:05;;;;;;;5.50;4.50;;;7.80;99.90;;;;;;5481686;26;20863;-67
2024/04/21 04:15:31;;;;;;;8.70;3.73;;;7.80;99.90;;;;;;5471584;26;20456;-67
2024/04/21 04:17:58;;;;;;;5.40;4.63;;;7.80;99.90;;;;;;5470269;26;20356;-67
2024/04/21 04:20:25;;;;;;;6.63;4.40;;;7.80;99.90;;;;;;5477220;26;20235;-67
2024/04/21 04:22:50;;;;;;;5.60;4.47;;;7.80;99.90;;;;;;5468061;26;20539;-67
2024/04/21 04:25:16;;;;;;;6.17;3.90;;;7.80;99.90;;;;;;5463997;26;20470;-67
2024/04/21 04:27:42;;;;;;;8.43;4.37;;;7.80;99.90;;;;;;5466627;26;20303;-67
2024/04/21 04:30:08;;;;;;;6.23;4.10;;;7.80;99.90;;;;;;5467821;26;20512;-67
2024/04/21 04:32:34;;;;;;;3.53;2.90;;;7.70;99.90;;;;;;5472096;25;20859;-67
2024/04/21 04:34:59;;;;;;;6.33;2.60;;;7.70;99.90;;;;;;5472080;26;20456;-67
2024/04/21 04:37:25;;;;;;;10.67;2.87;;;7.70;99.90;;;;;;5468099;26;20347;-67
2024/04/21 04:39:51;;;;;;;3.93;2.20;;;7.70;99.90;;;;;;5468794;26;20227;-67
2024/04/21 04:42:16;;;;;;;7.70;2.60;;;7.70;99.90;;;;;;5465855;26;20285;-66
2024/04/21 04:44:42;;;;;;;6.00;3.00;;;7.70;99.90;;;;;;5470464;26;20242;-67
2024/04/21 04:47:08;;;;;;;3.27;2.10;;;7.70;99.90;;;;;;5473839;26;20295;-67
2024/04/21 04:49:33;;;;;;;5.33;2.40;;;7.70;99.90;;;;;;5481276;26;20227;-67
2024/04/21 04:51:59;;;;;;;5.63;2.60;;;7.70;99.90;;;;;;5459217;26;20282;-67
2024/04/21 04:54:24;;;;;;;4.60;2.67;;;7.80;99.90;;;;;;5472135;26;20242;-67
2024/04/21 04:56:54;;;;;;;7.87;2.50;;;7.70;99.90;;;;;;5467042;26;20289;-67
2024/04/21 04:59:19;;;;;;;4.67;2.43;;;7.80;99.90;;;;;;5479196;26;20566;-67
2024/04/21 05:01:45;;;;;;;4.33;2.20;;;7.70;99.90;;;;;;5475003;26;20524;-66
2024/04/21 05:04:11;;;;;;;8.07;2.97;;;7.70;99.90;;;;;;5476679;26;20346;-66
2024/04/21 05:06:37;;;;;;;5.87;2.73;;;7.70;99.90;;;;;;5475525;26;20637;-66
2024/04/21 05:09:07;;;;;;;3.60;2.30;;;7.60;99.90;;;;;;5467492;26;20613;-66
2024/04/21 05:11:32;;;;;;;3.67;2.60;;;7.60;99.90;;;;;;5472645;26;20460;-66
2024/04/21 05:13:58;;;;;;;7.63;3.87;;;7.60;99.90;;;;;;5467234;26;20514;-66
2024/04/21 05:16:24;;;;;;;7.27;2.43;;;7.70;99.90;;;;;;5473624;26;20310;-66
2024/04/21 05:18:50;;;;;;;6.30;2.50;;;7.70;99.90;;;;;;5465512;26;20228;-66
2024/04/21 05:21:15;;;;;;;6.03;2.60;;;7.80;99.90;;;;;;5473534;26;20581;-66
2024/04/21 05:23:41;;;;;;;6.37;2.83;;;7.70;99.90;;;;;;5476172;26;20659;-67
2024/04/21 05:26:06;;;;;;;3.70;2.70;;;7.70;99.90;;;;;;5473680;26;20281;-69
2024/04/21 05:28:32;;;;;;;5.53;2.70;;;7.80;99.90;;;;;;5470717;26;20395;-66
2024/04/21 05:30:58;;;;;;;3.73;2.73;;;7.70;99.90;;;;;;5464613;26;20582;-66
2024/04/21 05:33:23;;;;;;;5.73;2.57;;;7.70;99.90;;;;;;5457944;26;20246;-66
2024/04/21 05:35:49;;;;;;;4.57;2.67;;;7.80;99.90;;;;;;5468589;26;20278;-67
2024/04/21 05:38:14;;;;;;;8.10;3.40;;;7.80;99.90;;;;;;5465900;26;21524;-67
2024/04/21 05:40:40;;;;;;;6.60;2.90;;;7.70;99.90;;;;;;5470937;26;20345;-67
2024/04/21 05:43:05;;;;;;;6.00;3.70;;;7.80;99.90;;;;;;5473293;26;20239;-67
2024/04/21 05:45:31;;;;;;;10.33;3.70;;;7.90;99.90;;;;;;5468167;26;20246;-67
2024/04/21 05:47:56;;;;;;;5.30;2.77;;;7.90;99.90;;;;;;5468463;26;20685;-67
2024/04/21 05:50:22;;;;;;;5.73;2.57;;;7.90;99.90;;;;;;5470736;26;20672;-67
2024/04/21 05:52:48;;;;;;;6.17;3.00;;;8.00;99.90;;;;;;5476690;26;21244;-67
2024/04/21 05:55:14;;;;;;;5.90;2.83;;;8.00;99.90;;;;;;5458334;26;20304;-67
2024/04/21 05:57:39;;;;;;;4.37;2.70;;;8.10;99.90;;;;;;5475326;26;20315;-67
2024/04/21 06:00:05;;;;;;;4.40;3.13;;;8.10;99.90;;;;;;5457871;26;20281;-67
2024/04/21 06:02:31;;;;;;;9.97;3.60;;;8.10;99.90;;;;;;5470902;26;20728;-66
2024/04/21 06:04:57;;;;;;;8.97;3.30;;;8.10;99.90;;;;;;5463047;25;20511;-67
2024/04/21 06:07:22;;;;;;;7.87;3.30;;;8.10;99.90;;;;;;5465043;26;20282;-67
2024/04/21 06:09:48;;;;;;;5.70;2.60;;;8.10;99.90;;;;;;5470261;26;20357;-67
2024/04/21 06:12:13;;;;;;;5.43;2.90;;;8.10;99.90;;;;;;5461901;26;20236;-67
2024/04/21 06:14:39;;;;;;;4.00;2.33;;;8.00;99.90;;;;;;5468932;26;20238;-67
2024/04/21 06:17:04;;;;;;;6.07;2.80;;;8.10;99.90;;;;;;5465734;26;20275;-67
2024/04/21 06:19:30;;;;;;;6.63;2.87;;;8.20;99.90;;;;;;5479206;26;20258;-67
2024/04/21 06:21:56;;;;;;;6.87;3.30;;;8.00;99.90;;;;;;5474379;26;20251;-67
2024/04/21 06:24:21;;;;;;;7.10;3.40;;;8.00;99.90;;;;;;5469585;26;20265;-67
2024/04/21 06:26:47;;;;;;;8.43;2.90;;;8.10;99.90;;;;;;5461219;26;20358;-66
2024/04/21 06:29:13;;;;;;;7.50;2.90;;;8.20;99.90;;;;;;5471437;26;20961;-67
2024/04/21 06:31:40;;;;;;;6.07;2.70;;;8.00;99.90;;;;;;5465208;26;20320;-67
2024/04/21 06:34:06;;;;;;;7.97;2.40;;;8.00;99.90;;;;;;5479030;26;20452;-67
2024/04/21 06:36:31;;;;;;;9.30;2.63;;;8.00;99.90;;;;;;5474410;26;20564;-67
2024/04/21 06:38:57;;;;;;;5.93;3.03;;;8.10;99.90;;;;;;5464709;26;20274;-67
2024/04/21 06:41:22;;;;;;;5.33;3.10;;;8.20;99.90;;;;;;5467919;26;20239;-68
2024/04/21 06:43:48;;;;;;;10.27;4.20;;;8.40;99.90;;;;;;5468035;26;20688;-66
2024/04/21 06:46:13;;;;;;;4.53;2.87;;;8.40;99.90;;;;;;5475131;26;20261;-66
2024/04/21 06:48:39;;;;;;;7.77;3.47;;;8.60;99.90;;;;;;5470722;26;20224;-66
2024/04/21 06:51:05;;;;;;;7.43;2.80;;;8.60;99.90;;;;;;5472173;26;20261;-67
2024/04/21 06:53:30;;;;;;;8.53;4.17;;;8.70;99.90;;;;;;5466296;26;20734;-67
2024/04/21 06:55:57;;;;;;;9.93;3.30;;;8.80;99.90;;;;;;5469141;26;21011;-68
2024/04/21 06:58:23;;;;;;;9.13;3.20;;;8.80;99.90;;;;;;5465647;26;20286;-67
2024/04/21 07:00:50;;;;;;;5.70;2.70;;;9.00;99.90;;;;;;5465978;26;20559;-67
2024/04/21 07:03:15;;;;;;;10.97;3.53;;;9.10;99.90;;;;;;5466973;26;20244;-66
2024/04/21 07:05:41;;;;;;;6.93;3.03;;;9.10;99.90;;;;;;5465303;26;20548;-67
2024/04/21 07:08:06;;;;;;;5.77;3.40;;;9.10;99.90;;;;;;5464683;26;20227;-66
2024/04/21 07:10:32;;;;;;;10.20;3.77;;;9.10;99.90;;;;;;5475123;26;20281;-67
2024/04/21 07:12:57;;;;;;;10.57;4.47;;;9.20;99.90;;;;;;5471709;26;20231;-67
2024/04/21 07:15:23;;;;;;;6.37;3.20;;;9.20;99.90;;;;;;5463490;26;20224;-67
2024/04/21 07:17:49;;;;;;;13.03;3.93;;;9.10;99.90;;;;;;5467871;26;20235;-66
2024/04/21 07:20:15;;;;;;;5.80;2.93;;;9.00;99.90;;;;;;5455294;26;20817;-67
2024/04/21 07:22:41;;;;;;;7.40;4.33;;;8.80;99.90;;;;;;5469460;26;20325;-67
2024/04/21 07:25:07;;;;;;;11.17;3.90;;;8.70;99.90;;;;;;5470345;26;20461;-67
2024/04/21 07:27:33;;;;;;;8.23;3.27;;;8.70;99.90;;;;;;5472726;26;20723;-67
2024/04/21 07:29:58;;;;;;;9.00;4.00;;;8.80;99.90;;;;;;5475358;26;20508;-67
2024/04/21 07:32:24;;;;;;;6.00;4.03;;;8.80;99.90;;;;;;5475655;26;20453;-67
2024/04/21 07:34:49;;;;;;;7.30;3.90;;;8.80;99.90;;;;;;5472359;26;20294;-67
2024/04/21 07:37:15;;;;;;;5.27;3.97;;;8.70;99.90;;;;;;5468535;26;20239;-67
2024/04/21 07:39:40;;;;;;;10.17;3.73;;;8.70;99.90;;;;;;5475276;26;20231;-67
2024/04/21 07:42:06;;;;;;;9.40;3.60;;;8.70;99.90;;;;;;5455549;26;20231;-69
2024/04/21 07:44:32;;;;;;;8.90;3.60;;;8.60;99.90;;;;;;5459518;26;20646;-68
2024/04/21 07:46:57;;;;;;;7.07;3.40;;;8.60;99.90;;;;;;5466258;26;20239;-68
2024/04/21 07:49:23;;;;;;;7.97;3.50;;;8.50;99.90;;;;;;5457780;26;20354;-68
2024/04/21 07:51:48;;;;;;;7.87;3.47;;;8.50;99.90;;;;;;5463822;26;20235;-68
2024/04/21 07:54:14;;;;;;;6.70;3.37;;;8.60;99.90;;;;;;5460088;26;20219;-68
2024/04/21 07:56:39;;;;;;;5.57;3.20;;;8.80;99.90;;;;;;5457987;26;20220;-68
2024/04/21 07:59:05;;;;;;;5.00;2.93;;;9.00;99.90;;;;;;5457902;26;20279;-68
2024/04/21 08:01:31;;;;;;;5.80;3.33;;;9.00;99.90;;;;;;5454057;26;20252;-68
2024/04/21 08:03:56;;;;;;;4.20;2.83;;;9.10;99.90;;;;;;5452224;26;20797;-68
2024/04/21 08:06:22;;;;;;;6.70;3.23;;;9.10;99.90;;;;;;5452792;26;20278;-68
2024/04/21 08:08:48;;;;;;;4.33;3.20;;;9.00;99.90;;;;;;5461748;26;20236;-68
2024/04/21 08:11:13;;;;;;;5.93;3.27;;;9.00;99.90;;;;;;5458626;26;20452;-68
2024/04/21 08:13:39;;;;;;;12.47;3.60;;;9.10;99.90;;;;;;5461584;26;20335;-68
2024/04/21 08:16:05;;;;;;;6.40;3.60;;;8.80;99.90;;;;;;5463034;26;20236;-68
2024/04/21 08:18:31;;;;;;;5.90;3.50;;;8.70;99.90;;;;;;5463286;26;20235;-67
2024/04/21 08:20:56;;;;;;;5.73;4.17;;;8.70;99.90;;;;;;5452010;26;20480;-68
2024/04/21 08:23:22;;;;;;;6.80;3.20;;;8.80;99.90;;;;;;5456561;26;20324;-67
2024/04/21 08:25:48;;;;;;;8.30;3.00;;;8.90;99.90;;;;;;5451413;26;20231;-68
2024/04/21 08:28:13;;;;;;;9.97;3.60;;;8.70;99.90;;;;;;5471616;26;20223;-67
2024/04/21 08:30:39;;;;;;;7.43;3.90;;;8.70;99.90;;;;;;5455881;26;20441;-68
2024/04/21 08:33:05;;;;;;;5.93;3.40;;;8.70;99.90;;;;;;5455618;26;20223;-68
2024/04/21 08:35:31;;;;;;;7.67;3.07;;;8.60;99.90;;;;;;5466211;26;20235;-68
2024/04/21 08:37:56;;;;;;;7.83;4.67;;;8.60;99.90;;;;;;5457123;26;20846;-67
2024/04/21 08:40:22;;;;;;;6.13;3.07;;;8.70;99.90;;;;;;5455949;26;20236;-67
2024/04/21 08:42:51;;;;;;;5.33;3.30;;;8.80;99.90;;;;;;5448757;26;20313;-68
2024/04/21 08:45:20;;;;;;;6.30;2.80;;;9.00;99.90;;;;;;5458640;26;20467;-68
2024/04/21 08:47:47;;;;;;;6.37;2.70;;;9.00;99.90;;;;;;5456619;26;20558;-68
2024/04/21 08:50:13;;;;;;;9.23;3.17;;;9.00;99.90;;;;;;5468303;26;20525;-68
2024/04/21 08:52:39;;;;;;;3.23;2.50;;;9.00;99.90;;;;;;5461495;26;20964;-67
2024/04/21 08:55:06;;;;;;;6.20;2.80;;;9.00;99.90;;;;;;5447019;26;20470;-67
2024/04/21 08:57:33;;;;;;;9.70;2.40;;;8.90;99.90;;;;;;5463734;26;20468;-68
2024/04/21 09:00:01;;;;;;;5.97;2.60;;;9.00;99.90;;;;;;5464726;26;20518;-68
2024/04/21 09:02:28;;;;;;;3.90;3.10;;;9.30;99.90;;;;;;5459112;26;20484;-68
2024/04/21 09:04:55;;;;;;;9.40;2.70;;;9.50;99.90;;;;;;5457350;26;20473;-67
2024/04/21 09:07:23;;;;;;;6.63;2.80;;;9.40;99.90;;;;;;5456677;26;20519;-68
2024/04/21 09:09:49;;;;;;;6.33;2.93;;;9.50;99.90;;;;;;5453016;25;20565;-68
2024/04/21 09:12:15;;;;;;;6.40;2.30;;;9.50;99.90;;;;;;5462033;26;20584;-68
2024/04/21 09:14:41;;;;;;;3.97;2.20;;;9.50;99.90;;;;;;5453912;26;20240;-68
2024/04/21 09:17:07;;;;;;;5.53;2.77;;;9.50;99.90;;;;;;5462098;26;20803;-68
2024/04/21 09:19:33;;;;;;;6.47;4.13;;;9.50;99.90;;;;;;5457410;26;20606;-68
2024/04/21 09:21:58;;;;;;;5.60;3.10;;;9.60;99.90;;;;;;5456371;26;20310;-68
2024/04/21 09:24:24;;;;;;;6.50;2.40;;;9.80;99.90;;;;;;5461790;26;20230;-68
2024/04/21 09:26:49;;;;;;;5.60;2.60;;;10.10;99.90;;;;;;5460582;26;20283;-68
2024/04/21 09:29:15;;;;;;;9.20;3.03;;;10.30;99.90;;;;;;5466272;26;20239;-68
2024/04/21 09:31:41;;;;;;;4.20;2.60;;;10.40;99.90;;;;;;5455718;26;20626;-68
2024/04/21 09:34:07;;;;;;;4.50;2.40;;;10.40;99.90;;;;;;5467050;26;20476;-68
2024/04/21 09:36:33;;;;;;;5.57;2.70;;;10.50;99.90;;;;;;5463132;26;20657;-68
2024/04/21 09:38:59;;;;;;;3.60;2.30;;;10.10;99.90;;;;;;5472185;26;20231;-68
2024/04/21 09:41:27;;;;;;;2.87;2.00;;;10.00;99.90;;;;;;5459821;26;20465;-67
2024/04/21 09:43:54;;;;;;;5.23;2.80;;;9.90;99.90;;;;;;5461913;26;20894;-67
2024/04/21 09:46:20;;;;;;;5.83;2.50;;;9.50;99.90;;;;;;5471051;26;21049;-68
2024/04/21 09:48:49;;;;;;;4.30;2.23;;;9.40;99.90;;;;;;5462091;26;20484;-68
2024/04/21 09:51:15;;;;;;;5.33;2.43;;;9.50;99.90;;;;;;5464881;26;20904;-67
2024/04/21 09:53:42;;;;;;;5.10;2.60;;;9.50;99.90;;;;;;5465605;26;20868;-68
2024/04/21 09:56:11;;;;;;;4.93;2.37;;;9.30;99.90;;;;;;5467559;26;21268;-67
2024/04/21 09:58:40;;;;;;;5.20;3.10;;;9.40;99.90;;;;;;5470297;26;20530;-68
2024/04/21 10:01:12;;;;;;;3.50;2.17;;;9.60;99.90;;;;;;5466859;26;20812;-68
2024/04/21 10:03:40;;;;;;;4.33;2.10;;;9.60;99.90;;;;;;5464616;26;20464;-68
2024/04/21 10:06:07;;;;;;;4.10;2.10;;;9.70;99.90;;;;;;5462066;26;20516;-68
2024/04/21 10:08:34;;;;;;;3.67;2.00;;;9.70;99.90;;;;;;5468716;26;20512;-68
2024/04/21 10:11:00;;;;;;;4.17;2.10;;;9.80;99.90;;;;;;5466581;26;20526;-68
2024/04/21 10:13:26;;;;;;;6.50;2.30;;;9.80;99.90;;;;;;5464750;26;20468;-68
2024/04/21 10:15:52;;;;;;;3.77;2.40;;;9.90;99.90;;;;;;5456775;26;20344;-68
2024/04/21 10:18:23;;;;;;;4.57;2.20;;;10.00;99.90;;;;;;5470920;26;20223;-69
2024/04/21 10:20:49;;;;;;;5.07;2.60;;;10.00;99.90;;;;;;5462249;25;20516;-69
2024/04/21 10:23:16;;;;;;;7.23;2.67;;;9.90;99.90;;;;;;5467440;26;20452;-69
2024/04/21 10:25:44;;;;;;;6.00;2.07;;;9.90;99.90;;;;;;5463780;26;20962;-68
2024/04/21 10:28:11;;;;;;;3.33;2.00;;;9.90;99.90;;;;;;5466418;26;20531;-69
2024/04/21 10:30:37;;;;;;;6.13;2.27;;;10.00;99.90;;;;;;5472863;26;20523;-68
2024/04/21 10:33:09;;;;;;;3.43;2.20;;;10.00;99.90;;;;;;5453804;26;20625;-68
2024/04/21 10:35:36;;;;;;;4.20;2.57;;;10.00;99.90;;;;;;5464196;26;20467;-68
2024/04/21 10:38:07;;;;;;;3.37;2.27;;;10.30;99.90;;;;;;5463325;26;21154;-68
2024/04/21 10:40:37;;;;;;;7.50;2.73;;;10.50;99.90;;;;;;5455595;26;21226;-69
2024/04/21 10:43:04;;;;;;;5.10;2.43;;;10.90;99.90;;;;;;5461716;26;21148;-68
2024/04/21 10:45:31;;;;;;;4.10;2.30;;;10.90;99.90;;;;;;5458984;26;20536;-68
2024/04/21 10:47:57;;;;;;;3.03;2.10;;;11.00;99.90;;;;;;5461981;26;21188;-68
2024/04/21 10:50:23;;;;;;;2.67;2.20;;;10.90;99.90;;;;;;5467148;26;20464;-68
2024/04/21 10:52:49;;;;;;;2.63;2.00;;;11.00;99.90;;;;;;5470336;26;20503;-68
2024/04/21 10:55:15;;;;;;;3.57;1.87;;;11.10;99.90;;;;;;5473043;26;20273;-69
2024/04/21 10:57:41;;;;;;;3.57;2.23;;;11.30;99.90;;;;;;5455960;26;20549;-69
2024/04/21 11:00:10;;;;;;;7.40;3.23;;;11.70;99.90;;;;;;5462189;26;20915;-69
2024/04/21 11:02:36;;;;;;;3.70;2.10;;;11.90;99.90;;;;;;5453968;26;20481;-66
2024/04/21 11:05:01;;;;;;;4.70;2.07;;;12.00;99.90;;;;;;5471299;26;20606;-67
2024/04/21 11:07:27;;;;;;;5.77;2.40;;;11.90;99.90;;;;;;5463824;26;20295;-68
2024/04/21 11:09:53;;;;;;;3.13;2.00;;;11.90;99.90;;;;;;5459830;26;20322;-68
2024/04/21 11:12:19;;;;;;;5.90;2.50;;;11.80;99.90;;;;;;5466910;26;21106;-68
2024/04/21 11:14:47;;;;;;;4.57;2.50;;;11.90;99.90;;;;;;5466064;26;20476;-68
2024/04/21 11:17:17;;;;;;;5.67;2.10;;;11.90;99.50;;;;;;5462462;26;21114;-68
2024/04/21 11:19:43;;;;;;;5.00;2.63;;;11.80;99.10;;;;;;5459149;26;20902;-68
2024/04/21 11:22:11;;;;;;;4.50;2.50;;;11.80;99.10;;;;;;5463767;26;20476;-69
2024/04/21 11:24:37;;;;;;;4.87;3.10;;;11.80;99.10;;;;;;5461775;26;20223;-68
2024/04/21 11:27:08;;;;;;;5.17;2.50;;;11.70;99.40;;;;;;5464552;26;21080;-69
2024/04/21 11:29:34;;;;;;;5.70;2.53;;;11.80;99.90;;;;;;5469021;26;20522;-69
2024/04/21 11:32:00;;;;;;;4.40;2.47;;;12.00;99.90;;;;;;5466777;26;20939;-69
2024/04/21 11:34:26;;;;;;;5.90;4.07;;;12.20;99.90;;;;;;5466716;26;20604;-69
2024/04/21 11:36:52;;;;;;;4.37;2.50;;;12.20;98.00;;;;;;5462851;26;20227;-69
2024/04/21 11:39:19;;;;;;;4.83;2.30;;;12.30;97.90;;;;;;5463584;26;20805;-68
2024/04/21 11:41:45;;;;;;;5.67;3.37;;;12.20;97.60;;;;;;5459693;26;20535;-69
2024/04/21 11:44:17;;;;;;;7.03;2.57;;;12.10;99.00;;;;;;5457596;26;20548;-69
2024/04/21 11:46:43;;;;;;;6.93;3.03;;;12.00;99.90;;;;;;5457755;26;20456;-68
2024/04/21 11:49:09;;;;;;;6.07;3.13;;;12.00;99.90;;;;;;5464944;26;20527;-69
2024/04/21 11:51:35;;;;;;;4.73;3.33;;;12.00;99.90;;;;;;5464858;26;20511;-68
2024/04/21 11:54:01;;;;;;;4.60;3.83;;;12.10;99.90;;;;;;5452637;26;20476;-68
2024/04/21 11:56:27;;;;;;;6.13;3.07;;;12.40;99.90;;;;;;5455913;26;20240;-68
2024/04/21 11:58:52;;;;;;;4.70;3.10;;;12.50;99.90;;;;;;5450238;26;20318;-67
2024/04/21 12:01:18;;;;;;;9.97;4.47;;;12.50;99.90;;;;;;5442657;26;20485;-67
2024/04/21 12:03:44;;;;;;;6.80;4.53;;;13.20;99.90;;;;;;5457673;26;20299;-67
2024/04/21 12:06:09;;;;;;;4.53;3.60;;;15.00;99.90;;;;;;5449944;26;20248;-67
2024/04/21 12:08:35;;;;;;;5.40;2.80;;;16.20;99.50;;;;;;5454358;26;20287;-67
2024/04/21 12:11:03;;;;;;;3.70;2.83;;;15.80;94.80;;;;;;5460171;26;20464;-67
2024/04/21 12:13:28;;;;;;;4.63;2.83;;;15.30;94.00;;;;;;5456563;26;20264;-67
2024/04/21 12:15:54;;;;;;;7.17;3.17;;;14.70;92.90;;;;;;5461677;26;20464;-67
2024/04/21 12:18:20;;;;;;;5.30;2.60;;;14.80;94.00;;;;;;5461345;26;20777;-67
2024/04/21 12:20:45;;;;;;;5.60;2.80;;;15.90;93.90;;;;;;5459486;26;20659;-67
2024/04/21 12:23:11;;;;;;;4.87;2.50;;;15.80;91.20;;;;;;5456840;26;20603;-67
2024/04/21 12:25:37;;;;;;;3.77;2.10;;;15.60;90.60;;;;;;5449903;26;20795;-67
2024/04/21 12:28:04;;;;;;;4.50;2.50;;;15.30;90.10;;;;;;5467572;26;20747;-67
2024/04/21 12:30:29;;;;;;;4.00;2.30;;;14.70;91.00;;;;;;5465556;26;20460;-67
2024/04/21 12:32:55;;;;;;;4.03;2.50;;;14.50;91.70;;;;;;5458301;26;20462;-67
2024/04/21 12:35:21;;;;;;;4.50;3.17;;;14.10;90.80;;;;;;5455616;26;20232;-67
2024/04/21 12:37:46;;;;;;;4.27;2.40;;;13.90;91.50;;;;;;5464108;26;20228;-67
2024/04/21 12:40:12;;;;;;;5.73;2.47;;;13.80;92.20;;;;;;5462556;26;20243;-67
2024/04/21 12:42:38;;;;;;;5.17;2.90;;;14.20;94.00;;;;;;5455492;26;20311;-67
2024/04/21 12:45:07;;;;;;;2.60;2.30;;;14.60;93.40;;;;;;5470199;26;20754;-67
2024/04/21 12:47:35;;;;;;;3.40;2.30;;;15.60;94.50;;;;;;5451491;26;20270;-67
2024/04/21 12:50:00;;;;;;;4.27;2.33;;;16.50;91.80;;;;;;5459415;25;20927;-67